sensor_id;sensor_type;location;lat;lon;timestamp;pressure;altitude;pressure_sealevel;temperature;humidity
61408;BME280;47274;43.054;25.146;2023-05-23T00:01:13;95390.94;;;11.14;100.00
61408;BME280;47274;43.054;25.146;2023-05-23T00:03:41;95374.06;;;11.12;100.00
61408;BME280;47274;43.054;25.146;2023-05-23T00:06:07;95362.69;;;11.14;100.00
61408;BME280;47274;43.054;25.146;2023-05-23T00:08:33;95390.41;;;11.45;100.00
61408;BME280;47274;43.054;25.146;2023-05-23T00:10:59;95327.34;;;11.08;100.00
61408;BME280;47274;43.054;25.146;2023-05-23T00:13:25;95370.97;;;11.43;100.00
61408;BME280;47274;43.054;25.146;2023-05-23T00:15:51;95371.47;;;11.46;100.00
61408;BME280;47274;43.054;25.146;2023-05-23T00:18:17;95374.97;;;11.45;100.00
61408;BME280;47274;43.054;25.146;2023-05-23T00:20:43;95368.91;;;11.46;100.00
61408;BME280;47274;43.054;25.146;2023-05-23T00:23:12;95328.38;;;11.32;100.00
61408;BME280;47274;43.054;25.146;2023-05-23T00:25:44;95371.66;;;11.61;100.00
61408;BME280;47274;43.054;25.146;2023-05-23T00:28:13;95374.59;;;11.66;100.00
61408;BME280;47274;43.054;25.146;2023-05-23T00:30:40;95341.94;;;11.50;100.00
61408;BME280;47274;43.054;25.146;2023-05-23T00:33:06;95308.16;;;11.29;100.00
61408;BME280;47274;43.054;25.146;2023-05-23T00:35:32;95306.19;;;11.23;100.00
61408;BME280;47274;43.054;25.146;2023-05-23T00:37:58;95376.97;;;11.59;100.00
61408;BME280;47274;43.054;25.146;2023-05-23T00:40:23;95372.16;;;11.56;100.00
61408;BME280;47274;43.054;25.146;2023-05-23T00:42:49;95374.38;;;11.51;100.00
61408;BME280;47274;43.054;25.146;2023-05-23T00:45:15;95322.22;;;11.17;100.00
61408;BME280;47274;43.054;25.146;2023-05-23T00:47:45;95316.22;;;11.00;100.00
61408;BME280;47274;43.054;25.146;2023-05-23T00:50:13;95337.00;;;11.14;100.00
61408;BME280;47274;43.054;25.146;2023-05-23T00:52:43;95321.53;;;11.06;100.00
61408;BME280;47274;43.054;25.146;2023-05-23T00:55:10;95371.91;;;11.33;100.00
61408;BME280;47274;43.054;25.146;2023-05-23T00:57:37;95352.75;;;11.28;100.00
61408;BME280;47274;43.054;25.146;2023-05-23T01:00:11;95365.34;;;11.39;100.00
61408;BME280;47274;43.054;25.146;2023-05-23T01:02:43;95320.25;;;11.10;100.00
61408;BME280;47274;43.054;25.146;2023-05-23T01:05:10;95352.50;;;11.47;100.00
61408;BME280;47274;43.054;25.146;2023-05-23T01:07:39;95311.34;;;11.23;100.00
61408;BME280;47274;43.054;25.146;2023-05-23T01:10:07;95305.09;;;11.25;100.00
61408;BME280;47274;43.054;25.146;2023-05-23T01:12:44;95315.19;;;11.27;100.00
61408;BME280;47274;43.054;25.146;2023-05-23T01:15:17;95339.97;;;11.44;100.00
61408;BME280;47274;43.054;25.146;2023-05-23T01:17:54;95356.09;;;11.62;100.00
61408;BME280;47274;43.054;25.146;2023-05-23T01:20:32;95334.16;;;11.34;100.00
61408;BME280;47274;43.054;25.146;2023-05-23T01:26:17;95339.66;;;11.39;100.00
61408;BME280;47274;43.054;25.146;2023-05-23T01:28:51;95348.97;;;11.48;100.00
61408;BME280;47274;43.054;25.146;2023-05-23T01:31:18;95364.69;;;11.45;100.00
61408;BME280;47274;43.054;25.146;2023-05-23T01:33:46;95330.47;;;11.28;100.00
61408;BME280;47274;43.054;25.146;2023-05-23T01:36:14;95348.59;;;11.35;100.00
61408;BME280;47274;43.054;25.146;2023-05-23T01:38:40;95353.59;;;11.36;100.00
61408;BME280;47274;43.054;25.146;2023-05-23T01:41:06;95358.75;;;11.36;100.00
61408;BME280;47274;43.054;25.146;2023-05-23T01:43:32;95353.44;;;11.38;100.00
61408;BME280;47274;43.054;25.146;2023-05-23T01:45:59;95349.25;;;11.37;100.00
61408;BME280;47274;43.054;25.146;2023-05-23T01:48:26;95368.09;;;11.46;100.00
61408;BME280;47274;43.054;25.146;2023-05-23T01:50:54;95354.25;;;11.38;100.00
61408;BME280;47274;43.054;25.146;2023-05-23T01:53:22;95346.50;;;11.30;100.00
61408;BME280;47274;43.054;25.146;2023-05-23T01:55:49;95305.31;;;11.06;100.00
61408;BME280;47274;43.054;25.146;2023-05-23T01:58:16;95355.03;;;11.31;100.00
61408;BME280;47274;43.054;25.146;2023-05-23T02:00:42;95318.66;;;11.09;100.00
61408;BME280;47274;43.054;25.146;2023-05-23T02:03:08;95324.16;;;11.14;100.00
61408;BME280;47274;43.054;25.146;2023-05-23T02:05:34;95358.75;;;11.36;100.00
61408;BME280;47274;43.054;25.146;2023-05-23T02:08:00;95323.63;;;11.11;100.00
61408;BME280;47274;43.054;25.146;2023-05-23T02:10:26;95322.09;;;11.18;100.00
61408;BME280;47274;43.054;25.146;2023-05-23T02:12:52;95327.03;;;11.11;100.00
61408;BME280;47274;43.054;25.146;2023-05-23T02:15:17;95343.13;;;11.22;100.00
61408;BME280;47274;43.054;25.146;2023-05-23T02:17:43;95367.13;;;11.38;100.00
61408;BME280;47274;43.054;25.146;2023-05-23T02:20:09;95358.25;;;11.33;100.00
61408;BME280;47274;43.054;25.146;2023-05-23T02:22:35;95367.91;;;11.39;100.00
61408;BME280;47274;43.054;25.146;2023-05-23T02:25:01;95362.72;;;11.31;100.00
61408;BME280;47274;43.054;25.146;2023-05-23T02:27:27;95368.66;;;11.31;100.00
61408;BME280;47274;43.054;25.146;2023-05-23T02:29:53;95372.38;;;11.37;100.00
61408;BME280;47274;43.054;25.146;2023-05-23T02:32:19;95376.13;;;11.43;100.00
61408;BME280;47274;43.054;25.146;2023-05-23T02:34:44;95377.72;;;11.44;100.00
61408;BME280;47274;43.054;25.146;2023-05-23T02:37:12;95372.38;;;11.37;100.00
61408;BME280;47274;43.054;25.146;2023-05-23T02:39:38;95356.97;;;11.29;100.00
61408;BME280;47274;43.054;25.146;2023-05-23T02:42:04;95347.13;;;11.24;100.00
61408;BME280;47274;43.054;25.146;2023-05-23T02:44:31;95351.47;;;11.24;100.00
61408;BME280;47274;43.054;25.146;2023-05-23T02:46:57;95370.19;;;11.42;100.00
61408;BME280;47274;43.054;25.146;2023-05-23T02:49:22;95359.06;;;11.42;100.00
61408;BME280;47274;43.054;25.146;2023-05-23T02:51:50;95359.72;;;11.44;100.00
61408;BME280;47274;43.054;25.146;2023-05-23T02:54:16;95380.16;;;11.53;100.00
61408;BME280;47274;43.054;25.146;2023-05-23T02:56:44;95369.53;;;11.48;100.00
61408;BME280;47274;43.054;25.146;2023-05-23T02:59:11;95357.59;;;11.31;100.00
61408;BME280;47274;43.054;25.146;2023-05-23T03:01:37;95374.00;;;11.38;100.00
61408;BME280;47274;43.054;25.146;2023-05-23T03:04:03;95365.66;;;11.36;100.00
61408;BME280;47274;43.054;25.146;2023-05-23T03:06:29;95367.91;;;11.39;100.00
61408;BME280;47274;43.054;25.146;2023-05-23T03:08:56;95373.19;;;11.37;100.00
61408;BME280;47274;43.054;25.146;2023-05-23T03:11:22;95369.34;;;11.42;100.00
61408;BME280;47274;43.054;25.146;2023-05-23T03:13:48;95363.09;;;11.36;100.00
61408;BME280;47274;43.054;25.146;2023-05-23T03:16:13;95364.84;;;11.35;100.00
61408;BME280;47274;43.054;25.146;2023-05-23T03:18:39;95386.41;;;11.43;100.00
61408;BME280;47274;43.054;25.146;2023-05-23T03:21:06;95361.72;;;11.24;100.00
61408;BME280;47274;43.054;25.146;2023-05-23T03:23:33;95379.13;;;11.38;100.00
61408;BME280;47274;43.054;25.146;2023-05-23T03:25:59;95379.13;;;11.38;100.00
61408;BME280;47274;43.054;25.146;2023-05-23T03:28:29;95374.34;;;11.43;100.00
61408;BME280;47274;43.054;25.146;2023-05-23T03:30:55;95373.25;;;11.46;100.00
61408;BME280;47274;43.054;25.146;2023-05-23T03:33:21;95376.00;;;11.52;100.00
61408;BME280;47274;43.054;25.146;2023-05-23T03:35:46;95381.94;;;11.61;100.00
61408;BME280;47274;43.054;25.146;2023-05-23T03:38:14;95380.84;;;11.72;100.00
61408;BME280;47274;43.054;25.146;2023-05-23T03:40:40;95357.72;;;11.63;100.00
61408;BME280;47274;43.054;25.146;2023-05-23T03:43:06;95335.38;;;11.56;100.00
61408;BME280;47274;43.054;25.146;2023-05-23T03:45:35;95389.31;;;11.90;100.00
61408;BME280;47274;43.054;25.146;2023-05-23T03:48:04;95352.81;;;11.87;100.00
61408;BME280;47274;43.054;25.146;2023-05-23T03:50:30;95382.25;;;12.08;100.00
61408;BME280;47274;43.054;25.146;2023-05-23T03:52:56;95392.72;;;12.31;100.00
61408;BME280;47274;43.054;25.146;2023-05-23T03:55:23;95400.78;;;12.53;100.00
61408;BME280;47274;43.054;25.146;2023-05-23T03:57:51;95370.22;;;12.50;100.00
61408;BME280;47274;43.054;25.146;2023-05-23T04:00:18;95371.00;;;12.67;100.00
61408;BME280;47274;43.054;25.146;2023-05-23T04:02:45;95364.72;;;12.69;100.00
61408;BME280;47274;43.054;25.146;2023-05-23T04:05:14;95367.13;;;12.79;100.00
61408;BME280;47274;43.054;25.146;2023-05-23T04:07:40;95382.88;;;12.92;100.00
61408;BME280;47274;43.054;25.146;2023-05-23T04:10:08;95385.25;;;13.02;100.00
61408;BME280;47274;43.054;25.146;2023-05-23T04:12:34;95385.25;;;13.02;100.00
61408;BME280;47274;43.054;25.146;2023-05-23T04:15:02;95399.09;;;13.09;100.00
61408;BME280;47274;43.054;25.146;2023-05-23T04:17:30;95372.56;;;13.00;100.00
61408;BME280;47274;43.054;25.146;2023-05-23T04:19:57;95398.28;;;13.17;100.00
61408;BME280;47274;43.054;25.146;2023-05-23T04:22:23;95401.31;;;13.28;100.00
61408;BME280;47274;43.054;25.146;2023-05-23T04:24:49;95391.50;;;13.32;100.00
61408;BME280;47274;43.054;25.146;2023-05-23T04:27:15;95394.38;;;13.37;100.00
61408;BME280;47274;43.054;25.146;2023-05-23T04:29:41;95409.47;;;13.48;100.00
61408;BME280;47274;43.054;25.146;2023-05-23T04:32:09;95408.31;;;13.59;100.00
61408;BME280;47274;43.054;25.146;2023-05-23T04:34:35;95398.50;;;13.55;100.00
61408;BME280;47274;43.054;25.146;2023-05-23T04:37:03;95403.28;;;13.66;100.00
61408;BME280;47274;43.054;25.146;2023-05-23T04:39:29;95392.31;;;13.72;100.00
61408;BME280;47274;43.054;25.146;2023-05-23T04:42:33;95398.84;;;13.83;100.00
61408;BME280;47274;43.054;25.146;2023-05-23T04:45:09;95409.84;;;14.08;100.00
61408;BME280;47274;43.054;25.146;2023-05-23T04:47:58;95411.19;;;14.27;100.00
61408;BME280;47274;43.054;25.146;2023-05-23T04:50:44;95408.19;;;14.38;99.98
61408;BME280;47274;43.054;25.146;2023-05-23T04:53:12;95407.31;;;14.45;98.64
61408;BME280;47274;43.054;25.146;2023-05-23T04:55:39;95413.38;;;14.61;98.48
61408;BME280;47274;43.054;25.146;2023-05-23T04:58:10;95427.47;;;14.73;97.17
61408;BME280;47274;43.054;25.146;2023-05-23T05:00:37;95427.41;;;14.81;96.53
61408;BME280;47274;43.054;25.146;2023-05-23T05:03:04;95400.03;;;14.72;95.50
61408;BME280;47274;43.054;25.146;2023-05-23T05:05:31;95411.72;;;14.83;94.48
61408;BME280;47274;43.054;25.146;2023-05-23T05:07:57;95419.25;;;15.07;95.14
61408;BME280;47274;43.054;25.146;2023-05-23T05:10:23;95384.66;;;14.93;95.11
61408;BME280;47274;43.054;25.146;2023-05-23T05:12:49;95423.38;;;15.31;93.63
61408;BME280;47274;43.054;25.146;2023-05-23T05:15:16;95432.19;;;15.52;94.46
61408;BME280;47274;43.054;25.146;2023-05-23T05:17:45;95411.25;;;15.47;94.34
61408;BME280;47274;43.054;25.146;2023-05-23T05:20:13;95443.91;;;15.77;92.78
61408;BME280;47274;43.054;25.146;2023-05-23T05:22:40;95429.31;;;15.70;91.08
61408;BME280;47274;43.054;25.146;2023-05-23T05:25:09;95430.25;;;15.83;91.74
61408;BME280;47274;43.054;25.146;2023-05-23T05:27:36;95443.88;;;16.07;90.86
61408;BME280;47274;43.054;25.146;2023-05-23T05:30:08;95405.94;;;15.99;90.60
61408;BME280;47274;43.054;25.146;2023-05-23T05:32:54;95416.84;;;15.95;89.68
61408;BME280;47274;43.054;25.146;2023-05-23T05:35:22;95413.03;;;15.91;88.66
61408;BME280;47274;43.054;25.146;2023-05-23T05:37:48;95427.78;;;16.11;90.76
61408;BME280;47274;43.054;25.146;2023-05-23T05:40:14;95422.91;;;16.23;88.83
61408;BME280;47274;43.054;25.146;2023-05-23T05:42:41;95432.88;;;16.41;88.76
61408;BME280;47274;43.054;25.146;2023-05-23T05:45:09;95435.09;;;16.66;88.41
61408;BME280;47274;43.054;25.146;2023-05-23T05:47:37;95414.53;;;16.64;87.24
61408;BME280;47274;43.054;25.146;2023-05-23T05:50:04;95431.34;;;16.90;87.59
61408;BME280;47274;43.054;25.146;2023-05-23T05:52:32;95445.00;;;17.05;85.30
61408;BME280;47274;43.054;25.146;2023-05-23T05:55:01;95440.91;;;17.17;85.93
61408;BME280;47274;43.054;25.146;2023-05-23T05:57:27;95444.41;;;17.31;86.41
61408;BME280;47274;43.054;25.146;2023-05-23T05:59:53;95445.06;;;17.12;87.29
61408;BME280;47274;43.054;25.146;2023-05-23T06:02:19;95438.16;;;16.33;89.96
61408;BME280;47274;43.054;25.146;2023-05-23T06:04:45;95437.84;;;16.21;92.70
61408;BME280;47274;43.054;25.146;2023-05-23T06:07:11;95437.94;;;15.77;91.44
61408;BME280;47274;43.054;25.146;2023-05-23T06:09:37;95413.22;;;15.74;94.56
61408;BME280;47274;43.054;25.146;2023-05-23T06:12:03;95443.56;;;16.17;91.91
61408;BME280;47274;43.054;25.146;2023-05-23T06:14:29;95444.34;;;16.53;90.32
61408;BME280;47274;43.054;25.146;2023-05-23T06:16:55;95443.66;;;16.88;89.06
61408;BME280;47274;43.054;25.146;2023-05-23T06:19:21;95429.78;;;17.23;86.88
61408;BME280;47274;43.054;25.146;2023-05-23T06:21:47;95447.84;;;17.38;85.31
61408;BME280;47274;43.054;25.146;2023-05-23T06:24:15;95444.72;;;17.21;89.58
61408;BME280;47274;43.054;25.146;2023-05-23T06:26:41;95455.16;;;17.00;89.27
61408;BME280;47274;43.054;25.146;2023-05-23T06:29:07;95451.59;;;16.79;88.93
61408;BME280;47274;43.054;25.146;2023-05-23T06:31:34;95462.16;;;16.63;91.88
61408;BME280;47274;43.054;25.146;2023-05-23T06:34:00;95461.13;;;17.00;91.12
61408;BME280;47274;43.054;25.146;2023-05-23T06:36:26;95463.41;;;16.67;88.25
61408;BME280;47274;43.054;25.146;2023-05-23T06:38:53;95446.63;;;16.85;89.61
61408;BME280;47274;43.054;25.146;2023-05-23T06:41:21;95435.03;;;16.59;89.70
61408;BME280;47274;43.054;25.146;2023-05-23T06:43:47;95445.50;;;16.29;89.72
61408;BME280;47274;43.054;25.146;2023-05-23T06:46:24;95447.72;;;16.54;88.81
61408;BME280;47274;43.054;25.146;2023-05-23T06:48:50;95445.75;;;16.56;91.46
61408;BME280;47274;43.054;25.146;2023-05-23T06:51:16;95460.50;;;16.55;88.39
61408;BME280;47274;43.054;25.146;2023-05-23T06:53:41;95464.69;;;17.21;88.50
61408;BME280;47274;43.054;25.146;2023-05-23T06:56:07;95455.34;;;17.26;87.25
61408;BME280;47274;43.054;25.146;2023-05-23T06:58:42;95443.97;;;17.27;87.73
61408;BME280;47274;43.054;25.146;2023-05-23T07:01:08;95445.94;;;17.60;89.12
61408;BME280;47274;43.054;25.146;2023-05-23T07:03:40;95410.41;;;16.70;90.64
61408;BME280;47274;43.054;25.146;2023-05-23T07:06:08;95415.09;;;16.81;90.93
61408;BME280;47274;43.054;25.146;2023-05-23T07:08:34;95434.34;;;16.72;87.50
61408;BME280;47274;43.054;25.146;2023-05-23T07:11:02;95409.16;;;16.38;88.67
61408;BME280;47274;43.054;25.146;2023-05-23T07:13:49;95439.44;;;16.80;89.05
61408;BME280;47274;43.054;25.146;2023-05-23T07:16:24;95446.78;;;17.67;86.51
61408;BME280;47274;43.054;25.146;2023-05-23T07:19:02;95444.38;;;18.00;84.87
61408;BME280;47274;43.054;25.146;2023-05-23T07:21:31;95451.72;;;17.90;86.14
61408;BME280;47274;43.054;25.146;2023-05-23T07:23:57;95423.97;;;17.91;84.83
61408;BME280;47274;43.054;25.146;2023-05-23T07:26:23;95429.59;;;18.08;84.76
61408;BME280;47274;43.054;25.146;2023-05-23T07:28:53;95453.28;;;18.46;84.63
61408;BME280;47274;43.054;25.146;2023-05-23T07:31:21;95445.16;;;18.76;81.63
61408;BME280;47274;43.054;25.146;2023-05-23T07:33:50;95445.00;;;18.84;82.54
61408;BME280;47274;43.054;25.146;2023-05-23T07:36:21;95444.94;;;18.57;84.55
61408;BME280;47274;43.054;25.146;2023-05-23T07:38:48;95449.34;;;18.63;84.95
61408;BME280;47274;43.054;25.146;2023-05-23T07:41:14;95441.16;;;18.73;80.18
61408;BME280;47274;43.054;25.146;2023-05-23T07:43:40;95429.56;;;18.82;78.63
61408;BME280;47274;43.054;25.146;2023-05-23T07:46:06;95447.56;;;18.70;79.24
61408;BME280;47274;43.054;25.146;2023-05-23T07:48:32;95450.16;;;19.24;77.85
61408;BME280;47274;43.054;25.146;2023-05-23T07:50:58;95442.38;;;19.10;75.05
61408;BME280;47274;43.054;25.146;2023-05-23T07:53:23;95430.75;;;19.39;75.80
61408;BME280;47274;43.054;25.146;2023-05-23T07:55:52;95447.94;;;20.19;75.31
61408;BME280;47274;43.054;25.146;2023-05-23T07:58:19;95444.47;;;20.70;71.02
61408;BME280;47274;43.054;25.146;2023-05-23T08:00:46;95441.22;;;21.24;68.80
61408;BME280;47274;43.054;25.146;2023-05-23T08:03:31;95432.97;;;21.27;65.18
61408;BME280;47274;43.054;25.146;2023-05-23T08:06:04;95436.16;;;21.04;68.43
61408;BME280;47274;43.054;25.146;2023-05-23T08:08:32;95440.91;;;21.14;62.34
61408;BME280;47274;43.054;25.146;2023-05-23T08:10:59;95444.53;;;21.57;69.13
61408;BME280;47274;43.054;25.146;2023-05-23T08:13:30;95424.16;;;21.84;66.05
61408;BME280;47274;43.054;25.146;2023-05-23T08:16:21;95435.84;;;21.99;64.57
61408;BME280;47274;43.054;25.146;2023-05-23T08:18:48;95450.03;;;22.40;67.26
61408;BME280;47274;43.054;25.146;2023-05-23T08:21:14;95431.13;;;22.68;61.92
61408;BME280;47274;43.054;25.146;2023-05-23T08:23:40;95444.69;;;22.77;55.78
61408;BME280;47274;43.054;25.146;2023-05-23T08:26:07;95428.91;;;22.96;62.83
61408;BME280;47274;43.054;25.146;2023-05-23T08:28:33;95424.50;;;23.43;60.36
61408;BME280;47274;43.054;25.146;2023-05-23T08:31:02;95442.59;;;23.33;60.71
61408;BME280;47274;43.054;25.146;2023-05-23T08:33:29;95441.59;;;23.46;55.22
61408;BME280;47274;43.054;25.146;2023-05-23T08:35:57;95425.97;;;23.39;58.72
61408;BME280;47274;43.054;25.146;2023-05-23T08:38:23;95438.47;;;23.72;58.63
61408;BME280;47274;43.054;25.146;2023-05-23T08:41:15;95434.50;;;24.10;56.98
61408;BME280;47274;43.054;25.146;2023-05-23T08:43:43;95432.94;;;24.09;59.68
61408;BME280;47274;43.054;25.146;2023-05-23T08:46:14;95439.63;;;24.17;59.36
61408;BME280;47274;43.054;25.146;2023-05-23T08:48:42;95422.03;;;24.00;56.96
61408;BME280;47274;43.054;25.146;2023-05-23T08:51:13;95425.19;;;24.14;55.82
61408;BME280;47274;43.054;25.146;2023-05-23T08:53:41;95433.63;;;24.45;56.26
61408;BME280;47274;43.054;25.146;2023-05-23T08:56:12;95423.78;;;24.52;53.55
61408;BME280;47274;43.054;25.146;2023-05-23T08:58:42;95410.19;;;24.55;55.41
61408;BME280;47274;43.054;25.146;2023-05-23T09:01:09;95430.69;;;24.41;55.64
61408;BME280;47274;43.054;25.146;2023-05-23T09:03:36;95423.81;;;24.69;56.51
61408;BME280;47274;43.054;25.146;2023-05-23T09:06:20;95412.66;;;24.78;53.83
61408;BME280;47274;43.054;25.146;2023-05-23T09:08:53;95416.59;;;24.76;54.85
61408;BME280;47274;43.054;25.146;2023-05-23T09:11:21;95429.59;;;24.71;56.80
61408;BME280;47274;43.054;25.146;2023-05-23T09:13:49;95434.97;;;24.93;56.41
61408;BME280;47274;43.054;25.146;2023-05-23T09:16:17;95418.00;;;25.00;53.13
61408;BME280;47274;43.054;25.146;2023-05-23T09:18:55;95402.28;;;25.17;55.25
61408;BME280;47274;43.054;25.146;2023-05-23T09:21:23;95432.72;;;25.35;55.24
61408;BME280;47274;43.054;25.146;2023-05-23T09:23:57;95426.44;;;25.36;53.31
61408;BME280;47274;43.054;25.146;2023-05-23T09:26:24;95428.16;;;25.64;52.00
61408;BME280;47274;43.054;25.146;2023-05-23T09:28:50;95428.28;;;25.36;53.48
61408;BME280;47274;43.054;25.146;2023-05-23T09:31:16;95431.19;;;25.56;55.38
61408;BME280;47274;43.054;25.146;2023-05-23T09:33:46;95423.94;;;25.46;49.28
61408;BME280;47274;43.054;25.146;2023-05-23T09:36:17;95434.50;;;25.68;51.77
61408;BME280;47274;43.054;25.146;2023-05-23T09:38:45;95433.44;;;25.69;51.05
61408;BME280;47274;43.054;25.146;2023-05-23T09:41:12;95419.53;;;25.69;49.97
61408;BME280;47274;43.054;25.146;2023-05-23T09:43:51;95420.59;;;25.90;49.60
61408;BME280;47274;43.054;25.146;2023-05-23T09:46:18;95423.44;;;25.66;49.52
61408;BME280;47274;43.054;25.146;2023-05-23T09:48:48;95425.53;;;25.86;52.47
61408;BME280;47274;43.054;25.146;2023-05-23T09:51:18;95414.66;;;25.99;48.59
61408;BME280;47274;43.054;25.146;2023-05-23T09:53:43;95424.81;;;25.91;51.48
61408;BME280;47274;43.054;25.146;2023-05-23T09:56:10;95418.88;;;26.00;49.33
61408;BME280;47274;43.054;25.146;2023-05-23T09:58:37;95406.28;;;25.81;49.79
61408;BME280;47274;43.054;25.146;2023-05-23T10:01:06;95422.84;;;26.03;48.59
61408;BME280;47274;43.054;25.146;2023-05-23T10:03:54;95416.53;;;26.04;45.88
61408;BME280;47274;43.054;25.146;2023-05-23T10:06:40;95407.88;;;26.04;47.67
61408;BME280;47274;43.054;25.146;2023-05-23T10:09:16;95408.41;;;25.84;48.67
61408;BME280;47274;43.054;25.146;2023-05-23T10:14:40;95417.38;;;26.32;48.96
61408;BME280;47274;43.054;25.146;2023-05-23T10:17:18;95413.09;;;25.98;43.89
61408;BME280;47274;43.054;25.146;2023-05-23T10:19:52;95399.44;;;25.80;46.53
61408;BME280;47274;43.054;25.146;2023-05-23T10:22:23;95415.00;;;26.08;49.05
61408;BME280;47274;43.054;25.146;2023-05-23T10:24:49;95400.28;;;26.07;48.70
61408;BME280;47274;43.054;25.146;2023-05-23T10:27:15;95401.69;;;25.71;48.13
61408;BME280;47274;43.054;25.146;2023-05-23T10:29:42;95406.81;;;26.05;45.12
61408;BME280;47274;43.054;25.146;2023-05-23T10:32:09;95414.31;;;26.40;48.53
61408;BME280;47274;43.054;25.146;2023-05-23T10:37:26;95407.53;;;26.76;43.62
61408;BME280;47274;43.054;25.146;2023-05-23T10:40:06;95407.19;;;26.94;44.36
61408;BME280;47274;43.054;25.146;2023-05-23T10:45:16;95410.63;;;26.41;46.13
61408;BME280;47274;43.054;25.146;2023-05-23T10:47:42;95391.44;;;26.67;44.79
61408;BME280;47274;43.054;25.146;2023-05-23T10:50:11;95406.13;;;26.36;47.62
61408;BME280;47274;43.054;25.146;2023-05-23T10:52:41;95402.72;;;26.14;44.83
61408;BME280;47274;43.054;25.146;2023-05-23T10:55:15;95399.38;;;25.02;44.38
61408;BME280;47274;43.054;25.146;2023-05-23T10:57:43;95397.50;;;25.14;51.46
61408;BME280;47274;43.054;25.146;2023-05-23T11:00:16;95389.00;;;25.85;47.67
61408;BME280;47274;43.054;25.146;2023-05-23T11:02:52;95387.38;;;26.06;46.92
61408;BME280;47274;43.054;25.146;2023-05-23T11:05:23;95377.19;;;25.10;46.46
61408;BME280;47274;43.054;25.146;2023-05-23T11:08:11;95383.81;;;25.73;47.69
61408;BME280;47274;43.054;25.146;2023-05-23T11:13:20;95389.06;;;24.33;48.99
61408;BME280;47274;43.054;25.146;2023-05-23T11:15:47;95387.03;;;24.23;51.50
61408;BME280;47274;43.054;25.146;2023-05-23T11:18:21;95373.88;;;24.06;51.30
61408;BME280;47274;43.054;25.146;2023-05-23T11:20:49;95375.53;;;23.96;51.36
61408;BME280;47274;43.054;25.146;2023-05-23T11:23:16;95371.00;;;23.39;49.02
61408;BME280;47274;43.054;25.146;2023-05-23T11:25:47;95362.44;;;24.24;48.48
61408;BME280;47274;43.054;25.146;2023-05-23T11:28:14;95380.97;;;25.14;49.28
61408;BME280;47274;43.054;25.146;2023-05-23T11:30:40;95388.25;;;25.28;50.56
61408;BME280;47274;43.054;25.146;2023-05-23T11:33:10;95388.66;;;25.81;48.15
61408;BME280;47274;43.054;25.146;2023-05-23T11:35:42;95387.69;;;26.09;44.81
61408;BME280;47274;43.054;25.146;2023-05-23T11:38:09;95380.19;;;25.96;45.70
61408;BME280;47274;43.054;25.146;2023-05-23T11:40:39;95384.19;;;25.38;46.00
61408;BME280;47274;43.054;25.146;2023-05-23T11:43:07;95380.16;;;24.79;47.69
61408;BME280;47274;43.054;25.146;2023-05-23T11:45:34;95375.28;;;25.22;48.17
61408;BME280;47274;43.054;25.146;2023-05-23T11:48:10;95387.69;;;25.65;47.24
61408;BME280;47274;43.054;25.146;2023-05-23T11:50:50;95384.75;;;25.84;45.18
61408;BME280;47274;43.054;25.146;2023-05-23T11:53:17;95377.09;;;26.04;46.92
61408;BME280;47274;43.054;25.146;2023-05-23T11:55:53;95369.94;;;25.77;45.27
61408;BME280;47274;43.054;25.146;2023-05-23T11:58:26;95358.88;;;25.32;42.76
61408;BME280;47274;43.054;25.146;2023-05-23T12:01:00;95347.63;;;24.64;44.81
61408;BME280;47274;43.054;25.146;2023-05-23T12:03:27;95360.19;;;24.62;45.72
61408;BME280;47274;43.054;25.146;2023-05-23T12:05:54;95341.09;;;25.00;48.85
61408;BME280;47274;43.054;25.146;2023-05-23T12:08:19;95344.28;;;25.63;51.01
61408;BME280;47274;43.054;25.146;2023-05-23T12:11:12;95348.38;;;26.24;48.03
61408;BME280;47274;43.054;25.146;2023-05-23T12:13:40;95354.53;;;26.08;46.85
61408;BME280;47274;43.054;25.146;2023-05-23T12:16:06;95320.94;;;25.88;46.79
61408;BME280;47274;43.054;25.146;2023-05-23T12:18:33;95345.09;;;25.85;46.49
61408;BME280;47274;43.054;25.146;2023-05-23T12:21:06;95331.09;;;25.80;49.21
61408;BME280;47274;43.054;25.146;2023-05-23T12:23:35;95340.91;;;25.45;48.21
61408;BME280;47274;43.054;25.146;2023-05-23T12:26:04;95345.94;;;25.69;45.71
61408;BME280;47274;43.054;25.146;2023-05-23T12:28:36;95345.44;;;25.72;48.00
61408;BME280;47274;43.054;25.146;2023-05-23T12:31:14;95345.94;;;25.91;46.91
61408;BME280;47274;43.054;25.146;2023-05-23T12:33:42;95328.47;;;26.07;46.14
61408;BME280;47274;43.054;25.146;2023-05-23T12:36:23;95331.97;;;25.85;47.97
61408;BME280;47274;43.054;25.146;2023-05-23T12:38:49;95342.25;;;24.92;48.83
61408;BME280;47274;43.054;25.146;2023-05-23T12:41:16;95340.28;;;25.16;48.10
61408;BME280;47274;43.054;25.146;2023-05-23T12:43:55;95320.13;;;25.22;41.26
61408;BME280;47274;43.054;25.146;2023-05-23T12:46:25;95329.97;;;25.53;43.71
61408;BME280;47274;43.054;25.146;2023-05-23T12:48:52;95332.53;;;25.70;46.70
61408;BME280;47274;43.054;25.146;2023-05-23T12:51:17;95327.19;;;25.82;47.96
61408;BME280;47274;43.054;25.146;2023-05-23T12:53:43;95296.00;;;25.69;44.18
61408;BME280;47274;43.054;25.146;2023-05-23T12:56:09;95302.00;;;25.03;48.02
61408;BME280;47274;43.054;25.146;2023-05-23T12:58:35;95312.47;;;24.81;46.67
61408;BME280;47274;43.054;25.146;2023-05-23T13:01:02;95310.50;;;25.11;47.60
61408;BME280;47274;43.054;25.146;2023-05-23T13:03:28;95313.25;;;25.38;47.33
61408;BME280;47274;43.054;25.146;2023-05-23T13:05:58;95308.25;;;25.58;46.03
61408;BME280;47274;43.054;25.146;2023-05-23T13:08:25;95297.31;;;25.44;47.04